Time;durP1;ratioP1;P1;durP2;ratioP2;P2;SDS_P1;SDS_P2;PMS_P1;PMS_P2;Temp;Humidity;BMP_temperature;BMP_pressure;BME280_temperature;BME280_humidity;BME280_pressure;Samples;Min_cycle;Max_cycle;Signal;HPM_P1;HPM_P2
2021/08/24 00:00:48;;;;;;;1.70;1.60;;;;;;;22.22;90.71;97870.31;4998483;28;20260;-68
2021/08/24 00:03:15;;;;;;;1.60;1.50;;;;;;;22.99;90.96;98004.34;4978031;28;20211;-70
2021/08/24 00:05:41;;;;;;;1.87;1.77;;;;;;;23.02;90.43;98001.88;4984849;28;20803;-68
2021/08/24 00:08:08;;;;;;;1.50;1.40;;;;;;;23.02;90.48;98003.56;4979847;28;20214;-69
2021/08/24 00:10:40;;;;;;;1.50;1.40;;;;;;;23.00;90.37;98006.06;4985335;28;20234;-69
2021/08/24 00:13:07;;;;;;;1.70;1.60;;;;;;;22.87;90.46;97983.44;4965920;28;20314;-70
2021/08/24 00:15:33;;;;;;;1.80;1.70;;;;;;;23.00;90.33;98003.50;4982373;28;20251;-68
2021/08/24 00:21:24;;;;;;;1.50;1.40;;;;;;;22.97;90.49;98003.41;4984565;28;20290;-68
2021/08/24 00:23:50;;;;;;;1.57;1.47;;;;;;;22.61;90.43;97934.75;4985328;28;20306;-69
2021/08/24 00:26:17;;;;;;;1.40;1.30;;;;;;;22.97;90.70;97993.16;5039650;22;20926;-66
2021/08/24 00:28:44;;;;;;;1.60;1.50;;;;;;;22.96;90.62;97999.13;5000378;28;20238;-66
2021/08/24 00:31:11;;;;;;;1.67;1.57;;;;;;;22.95;90.57;98002.47;5002656;28;20297;-66
2021/08/24 00:33:37;;;;;;;1.70;1.60;;;;;;;22.95;90.74;98002.47;5001836;28;20298;-66
2021/08/24 00:36:04;;;;;;;1.70;1.60;;;;;;;22.95;90.71;98002.47;4998616;28;20547;-66
2021/08/24 00:38:30;;;;;;;1.53;1.43;;;;;;;22.95;90.84;98001.63;5001656;28;20243;-66
2021/08/24 00:40:59;;;;;;;1.70;1.60;;;;;;;22.95;90.63;98009.31;5005920;28;20198;-66
2021/08/24 00:43:26;;;;;;;1.73;1.63;;;;;;;22.95;90.65;98005.03;5002166;28;20297;-66
2021/08/24 00:46:25;;;;;;;1.70;1.60;;;;;;;22.94;90.57;98005.88;5005196;28;20202;-66
2021/08/24 00:48:52;;;;;;;1.70;1.60;;;;;;;22.86;90.61;97989.38;4972224;28;20225;-66
2021/08/24 00:51:19;;;;;;;1.60;1.50;;;;;;;22.96;90.74;98005.91;4998035;28;20206;-66
2021/08/24 00:53:45;;;;;;;1.60;1.50;;;;;;;22.79;90.66;97973.75;4998522;28;20285;-66
2021/08/24 00:56:12;;;;;;;1.40;1.30;;;;;;;22.97;90.68;98005.09;4986138;28;20234;-66
2021/08/24 00:58:39;;;;;;;1.40;1.30;;;;;;;22.89;90.70;97980.94;5004541;28;20617;-66
2021/08/24 01:01:06;;;;;;;1.80;1.47;;;;;;;22.99;90.61;98008.59;4993567;28;20344;-66
2021/08/24 01:03:43;;;;;;;1.50;1.40;;;;;;;23.00;90.48;98000.94;5006197;28;20216;-63
2021/08/24 01:06:26;;;;;;;1.60;1.50;;;;;;;23.01;90.50;97994.13;4974038;28;20421;-66
2021/08/24 01:08:59;;;;;;;1.80;1.70;;;;;;;23.01;90.39;98001.81;5006175;28;20619;-65
2021/08/24 01:12:04;;;;;;;1.57;1.47;;;;;;;23.02;90.41;97998.41;5004631;28;20661;-66
2021/08/24 01:14:58;;;;;;;1.60;1.50;;;;;;;23.02;90.45;97999.31;5009716;28;21136;-66
2021/08/24 01:17:32;;;;;;;3.07;1.53;;;;;;;23.04;90.38;98001.91;5005518;28;20230;-66
2021/08/24 01:20:10;;;;;;;1.87;1.70;;;;;;;23.03;90.31;98006.16;4997330;28;20238;-65
2021/08/24 01:22:57;;;;;;;1.63;1.53;;;;;;;23.03;90.31;98003.59;5001725;28;20217;-65
2021/08/24 01:25:45;;;;;;;1.60;1.50;;;;;;;23.04;90.28;98004.47;5002688;28;20285;-66
2021/08/24 01:28:22;;;;;;;1.77;1.67;;;;;;;23.04;90.13;98005.31;4996674;28;20321;-65
2021/08/24 01:31:22;;;;;;;2.30;1.50;;;;;;;23.04;90.24;98001.91;4992814;28;20747;-66
2021/08/24 01:33:49;;;;;;;1.70;1.60;;;;;;;23.04;90.17;98007.03;4990657;28;20206;-66
2021/08/24 01:36:19;;;;;;;1.60;1.50;;;;;;;23.04;90.33;97999.34;5003187;28;20588;-66
2021/08/24 01:38:52;;;;;;;1.63;1.53;;;;;;;23.04;90.22;98004.47;5004737;28;20240;-66
2021/08/24 01:41:23;;;;;;;2.70;1.70;;;;;;;23.04;90.08;98013.03;4994783;28;20210;-66
2021/08/24 01:44:02;;;;;;;1.80;1.70;;;;;;;23.05;90.25;98008.78;4983062;28;20291;-65
2021/08/24 01:46:31;;;;;;;1.60;1.50;;;;;;;23.05;90.30;98008.78;5002687;28;20224;-65
2021/08/24 01:48:59;;;;;;;1.60;1.50;;;;;;;23.05;90.22;98006.22;4991703;28;20202;-67
2021/08/24 01:51:27;;;;;;;1.80;1.70;;;;;;;23.05;90.10;98006.22;4993824;28;20206;-65
2021/08/24 01:53:59;;;;;;;2.77;1.40;;;;;;;23.05;90.21;98003.66;5001242;28;20307;-64
2021/08/24 01:56:29;;;;;;;1.40;1.30;;;;;;;23.06;90.17;98000.25;4991722;28;20788;-63
2021/08/24 01:59:13;;;;;;;1.73;1.63;;;;;;;23.00;90.01;97997.50;5004034;28;20309;-64
2021/08/24 02:02:00;;;;;;;1.70;1.60;;;;;;;23.00;90.05;98000.06;4978530;28;20293;-64
2021/08/24 02:04:30;;;;;;;1.97;1.70;;;;;;;23.06;90.07;98005.38;4987278;28;20266;-64
2021/08/24 02:06:57;;;;;;;1.50;1.40;;;;;;;23.06;90.06;98005.38;4992698;28;20310;-64
2021/08/24 02:09:33;;;;;;;1.77;1.67;;;;;;;23.05;90.04;97999.41;5003933;28;20210;-64
2021/08/24 02:11:59;;;;;;;1.60;1.50;;;;;;;23.06;89.98;97995.13;4990746;28;20289;-64
2021/08/24 02:14:26;;;;;;;1.73;1.63;;;;;;;23.01;90.19;97989.00;4980829;28;20290;-64
2021/08/24 02:16:52;;;;;;;1.63;1.53;;;;;;;23.07;89.91;97996.88;4986027;28;20326;-64
2021/08/24 02:19:24;;;;;;;1.70;1.60;;;;;;;23.07;89.88;98002.00;4986874;28;20229;-65
2021/08/24 02:21:53;;;;;;;1.50;1.40;;;;;;;23.07;90.05;98004.56;4986277;28;20267;-65
2021/08/24 02:24:24;;;;;;;1.87;1.40;;;;;;;23.07;89.88;97999.44;5004835;28;20299;-64
2021/08/24 02:26:50;;;;;;;1.53;1.43;;;;;;;23.08;89.78;97996.03;4992425;28;20312;-63
2021/08/24 02:29:17;;;;;;;1.60;1.50;;;;;;;23.02;89.75;97977.91;4984549;28;20215;-64
2021/08/24 02:31:54;;;;;;;1.73;1.63;;;;;;;23.07;89.94;97996.88;4990883;28;20289;-64
2021/08/24 02:34:39;;;;;;;2.97;1.67;;;;;;;23.06;89.83;97996.00;5004295;28;20325;-62
2021/08/24 02:37:18;;;;;;;1.77;1.40;;;;;;;23.08;89.87;97993.47;5001104;28;20236;-65
2021/08/24 02:40:06;;;;;;;1.77;1.67;;;;;;;23.07;89.95;97994.31;5004149;28;20206;-64
2021/08/24 02:43:00;;;;;;;1.60;1.50;;;;;;;23.08;89.85;97988.34;4998554;28;20216;-64
2021/08/24 02:45:31;;;;;;;1.63;1.53;;;;;;;23.07;89.67;97989.19;4995998;28;20242;-63
2021/08/24 02:47:58;;;;;;;1.60;1.50;;;;;;;22.93;89.77;97962.25;5003452;28;20223;-63
2021/08/24 02:50:25;;;;;;;2.13;1.80;;;;;;;23.07;89.71;97987.47;4984921;28;20395;-64
2021/08/24 02:52:51;;;;;;;1.83;1.50;;;;;;;23.08;89.64;97990.91;5003762;28;20289;-65
2021/08/24 02:55:18;;;;;;;1.90;1.70;;;;;;;23.08;89.86;97988.34;4990310;28;20509;-65
2021/08/24 02:57:45;;;;;;;1.70;1.60;;;;;;;23.08;89.83;97988.34;5005025;28;20662;-63
2021/08/24 03:00:11;;;;;;;2.00;1.80;;;;;;;23.07;89.76;97992.59;5002531;28;20672;-64
2021/08/24 03:02:38;;;;;;;1.70;1.60;;;;;;;23.06;89.63;97985.75;5000281;28;20206;-64
2021/08/24 03:05:05;;;;;;;1.70;1.60;;;;;;;22.44;89.76;97871.88;5005439;28;20207;-64
2021/08/24 03:07:31;;;;;;;1.80;1.70;;;;;;;23.08;89.20;97984.09;5005110;28;20258;-64
2021/08/24 03:10:01;;;;;;;1.80;1.70;;;;;;;23.08;89.81;97983.22;4997810;28;20282;-65
2021/08/24 03:12:56;;;;;;;1.50;1.40;;;;;;;23.07;89.76;97977.22;4989367;28;20207;-64
2021/08/24 03:15:50;;;;;;;1.97;1.77;;;;;;;22.93;89.85;97963.13;4986506;28;20211;-65
2021/08/24 03:18:30;;;;;;;1.60;1.50;;;;;;;23.08;89.60;97981.53;4999628;28;20591;-64
2021/08/24 03:20:58;;;;;;;2.60;1.60;;;;;;;23.08;89.63;97983.22;4996250;28;20289;-65
2021/08/24 03:23:25;;;;;;;1.50;1.40;;;;;;;23.07;89.70;97976.38;5005165;28;20289;-64
2021/08/24 03:25:52;;;;;;;1.70;1.60;;;;;;;23.07;89.55;97982.34;4989936;28;20314;-64
2021/08/24 03:28:20;;;;;;;1.90;1.80;;;;;;;23.08;89.68;97980.66;4985947;28;20306;-65
2021/08/24 03:30:46;;;;;;;1.60;1.50;;;;;;;23.07;89.63;97977.22;5005471;28;20213;-64
2021/08/24 03:33:13;;;;;;;1.57;1.47;;;;;;;23.07;89.65;97977.22;5001540;28;20289;-64
2021/08/24 03:35:39;;;;;;;1.40;1.30;;;;;;;23.08;89.72;97986.66;5003445;28;20728;-65
2021/08/24 03:38:06;;;;;;;1.50;1.40;;;;;;;23.08;89.71;97988.34;4998540;28;20270;-62
2021/08/24 03:40:32;;;;;;;1.70;1.60;;;;;;;23.08;89.74;97988.34;5005784;28;20682;-64
2021/08/24 03:42:59;;;;;;;1.80;1.63;;;;;;;22.91;89.62;97953.63;5006536;28;20209;-65
2021/08/24 03:45:26;;;;;;;1.70;1.60;;;;;;;23.07;89.83;97982.34;5004126;28;20676;-64
2021/08/24 03:47:52;;;;;;;1.90;1.80;;;;;;;23.08;89.68;97993.47;5005396;28;20327;-65
2021/08/24 03:50:20;;;;;;;1.43;1.33;;;;;;;23.08;89.52;97989.22;5002258;28;20203;-64
2021/08/24 03:52:47;;;;;;;1.53;1.43;;;;;;;23.08;89.38;97989.22;5000868;28;20297;-64
2021/08/24 03:55:14;;;;;;;1.80;1.70;;;;;;;23.08;89.68;97980.66;5000921;28;20202;-66
2021/08/24 03:57:40;;;;;;;1.60;1.50;;;;;;;23.09;89.78;97992.66;4996588;28;20259;-64
2021/08/24 04:00:07;;;;;;;1.53;1.43;;;;;;;23.09;89.56;97992.66;4990616;28;20229;-65
2021/08/24 04:02:34;;;;;;;1.70;1.60;;;;;;;23.09;89.29;97992.66;5002820;28;20725;-64
2021/08/24 04:05:02;;;;;;;1.83;1.73;;;;;;;23.08;89.60;97994.38;5004360;28;20294;-65
2021/08/24 04:07:30;;;;;;;3.03;1.60;;;;;;;23.09;89.58;98001.22;5004182;28;20237;-65
2021/08/24 04:09:56;;;;;;;1.67;1.57;;;;;;;23.10;89.19;98002.09;5003137;28;20211;-65
2021/08/24 04:12:23;;;;;;;1.47;1.37;;;;;;;23.09;89.55;98005.47;5005003;28;20198;-62
2021/08/24 04:14:49;;;;;;;1.60;1.50;;;;;;;23.10;89.32;98004.66;5003100;28;20305;-65
2021/08/24 04:17:16;;;;;;;1.60;1.50;;;;;;;23.10;89.47;98002.09;5000927;28;20235;-64
2021/08/24 04:19:43;;;;;;;1.63;1.53;;;;;;;23.10;89.43;98007.22;5001740;28;20293;-64
2021/08/24 04:22:11;;;;;;;1.60;1.50;;;;;;;23.10;89.26;98007.22;4999160;28;20246;-64
2021/08/24 04:24:38;;;;;;;1.67;1.57;;;;;;;23.11;89.44;98011.53;5001617;28;20213;-64
2021/08/24 04:27:05;;;;;;;1.47;1.37;;;;;;;23.11;89.58;98014.09;5003692;28;20313;-63
2021/08/24 04:29:31;;;;;;;1.90;1.80;;;;;;;23.11;89.32;98019.22;5004256;28;20698;-64
2021/08/24 04:31:58;;;;;;;1.80;1.70;;;;;;;22.91;89.28;97980.16;4999517;28;20333;-63
2021/08/24 04:34:24;;;;;;;1.87;1.77;;;;;;;23.12;89.36;98018.41;4994060;28;20202;-65
2021/08/24 04:36:51;;;;;;;1.87;1.77;;;;;;;23.11;89.19;98014.97;5006752;28;20221;-66
2021/08/24 04:39:18;;;;;;;1.60;1.50;;;;;;;23.11;89.25;98025.22;5003410;28;20289;-64
2021/08/24 04:41:44;;;;;;;3.37;1.73;;;;;;;23.12;89.48;98026.94;5005322;28;20293;-63
2021/08/24 04:44:11;;;;;;;1.70;1.60;;;;;;;23.12;89.42;98020.97;4997042;28;20209;-64
2021/08/24 04:46:38;;;;;;;2.10;1.90;;;;;;;23.12;89.48;98028.66;5007351;28;20313;-65
2021/08/24 04:49:04;;;;;;;3.20;1.70;;;;;;;23.13;89.44;98023.59;5008565;28;20293;-64
2021/08/24 04:51:31;;;;;;;6.33;1.87;;;;;;;23.13;89.20;98028.72;5008420;28;20237;-65
2021/08/24 04:53:57;;;;;;;5.03;1.90;;;;;;;23.14;89.56;98035.56;5009838;28;20844;-64
2021/08/24 04:56:24;;;;;;;2.60;1.90;;;;;;;23.14;88.72;98030.44;5004092;28;20768;-63
2021/08/24 04:58:50;;;;;;;4.70;1.90;;;;;;;23.14;89.26;98033.00;5005252;28;20758;-65
2021/08/24 05:01:17;;;;;;;3.70;1.60;;;;;;;23.15;89.26;98031.31;5002986;28;20213;-67
2021/08/24 05:03:44;;;;;;;7.97;2.00;;;;;;;23.15;89.02;98033.91;5009582;28;20897;-65
2021/08/24 05:06:10;;;;;;;3.40;2.23;;;;;;;23.16;88.53;98035.63;5003020;28;20816;-64
2021/08/24 05:08:37;;;;;;;10.27;2.50;;;;;;;23.17;87.58;98037.34;5000725;28;20645;-64
2021/08/24 05:11:04;;;;;;;4.00;2.87;;;;;;;23.16;86.53;98039.06;5007255;28;20298;-64
2021/08/24 05:13:30;;;;;;;9.27;3.13;;;;;;;23.17;85.38;98042.47;5004484;28;20234;-65
2021/08/24 05:15:57;;;;;;;8.00;3.53;;;;;;;23.17;84.44;98042.47;5002563;28;20294;-62
2021/08/24 05:18:23;;;;;;;7.33;3.30;;;;;;;23.18;83.74;98051.94;5009833;28;20226;-63
2021/08/24 05:20:50;;;;;;;7.70;3.10;;;;;;;23.17;83.72;98037.34;4999362;28;20260;-65
2021/08/24 05:23:17;;;;;;;4.30;3.60;;;;;;;23.17;82.39;98043.38;5005402;28;20652;-65
2021/08/24 05:25:45;;;;;;;7.27;3.83;;;;;;;23.18;80.84;98051.94;4999105;28;20294;-65
2021/08/24 05:28:16;;;;;;;5.93;3.90;;;;;;;23.18;79.89;98049.38;5002589;28;20748;-65
2021/08/24 05:30:42;;;;;;;5.30;4.23;;;;;;;23.17;79.10;98051.06;4994769;28;20664;-66
2021/08/24 05:33:09;;;;;;;6.13;4.20;;;;;;;23.18;78.20;98051.94;5000676;28;20203;-65
2021/08/24 05:35:35;;;;;;;5.27;4.33;;;;;;;23.17;76.88;98057.88;5005863;28;20210;-65
2021/08/24 05:38:02;;;;;;;5.60;4.07;;;;;;;23.15;76.54;98055.25;4995260;28;20313;-65
2021/08/24 05:40:28;;;;;;;5.87;4.37;;;;;;;23.13;76.77;98067.19;5005341;28;20238;-64
2021/08/24 05:42:55;;;;;;;7.27;4.43;;;;;;;23.12;76.51;98064.56;4996882;28;20202;-65
2021/08/24 05:45:22;;;;;;;12.60;4.83;;;;;;;23.10;76.60;98067.09;4977755;28;20269;-66
2021/08/24 05:47:48;;;;;;;6.60;4.80;;;;;;;23.08;76.38;98072.97;5004135;28;20230;-63
2021/08/24 05:50:15;;;;;;;6.90;4.40;;;;;;;23.06;76.67;98066.91;5004274;28;20593;-65
2021/08/24 05:52:42;;;;;;;6.13;4.27;;;;;;;23.05;76.75;98065.16;5000843;28;20632;-65
2021/08/24 05:55:08;;;;;;;5.83;4.57;;;;;;;22.98;76.83;98058.13;5006282;28;20289;-65
2021/08/24 05:57:35;;;;;;;4.40;4.00;;;;;;;23.03;76.21;98070.25;5002082;28;20240;-65
2021/08/24 06:00:03;;;;;;;6.63;4.90;;;;;;;23.03;76.79;98070.25;5005962;28;20289;-65
2021/08/24 06:02:30;;;;;;;9.17;4.53;;;;;;;23.05;76.46;98073.75;5006300;28;20206;-65
2021/08/24 06:04:56;;;;;;;8.20;4.70;;;;;;;23.06;76.52;98077.16;4993597;28;20264;-65
2021/08/24 06:07:23;;;;;;;5.67;4.10;;;;;;;23.06;76.58;98077.16;5000521;28;20253;-64
2021/08/24 06:09:49;;;;;;;7.43;4.83;;;;;;;23.06;76.45;98083.16;5005342;28;20294;-62
2021/08/24 06:12:17;;;;;;;6.20;4.60;;;;;;;23.06;76.36;98079.72;4993064;28;20206;-69
2021/08/24 06:14:44;;;;;;;8.33;4.83;;;;;;;23.05;76.88;98078.88;4996600;28;20269;-64
2021/08/24 06:17:10;;;;;;;6.67;4.37;;;;;;;23.06;77.00;98079.72;4995427;28;20269;-63
2021/08/24 06:19:37;;;;;;;9.13;4.77;;;;;;;23.02;77.11;98070.19;5007573;28;20270;-65
2021/08/24 06:22:03;;;;;;;7.97;4.90;;;;;;;23.06;77.25;98072.91;5004041;28;20202;-66
2021/08/24 06:24:31;;;;;;;6.80;4.40;;;;;;;23.05;77.76;98073.75;5000193;28;20285;-64
2021/08/24 06:26:57;;;;;;;6.50;4.80;;;;;;;22.80;78.10;98027.63;5127633;22;21519;-67
2021/08/24 06:29:24;;;;;;;8.27;4.63;;;;;;;23.06;78.65;98072.03;4982554;28;20253;-69
2021/08/24 06:31:53;;;;;;;13.00;4.93;;;;;;;22.88;79.32;98045.81;4997568;28;20285;-68
2021/08/24 06:34:19;;;;;;;7.03;4.40;;;;;;;23.01;79.88;98069.31;5004605;28;20277;-68
2021/08/24 06:36:46;;;;;;;7.90;4.43;;;;;;;22.03;80.30;97902.94;4996574;28;20236;-69
2021/08/24 06:39:13;;;;;;;7.00;4.60;;;;;;;22.84;80.15;98042.31;4997051;28;20238;-68
2021/08/24 06:41:40;;;;;;;8.83;5.20;;;;;;;23.07;79.76;98082.34;4998352;28;20506;-68
2021/08/24 06:44:07;;;;;;;6.97;4.20;;;;;;;23.02;80.52;98073.66;5001824;28;20206;-67
2021/08/24 06:46:34;;;;;;;7.53;4.83;;;;;;;22.99;80.90;98067.53;4988936;28;20287;-68
2021/08/24 06:49:01;;;;;;;6.07;3.90;;;;;;;22.98;81.32;98063.25;4985901;28;20202;-67
2021/08/24 06:51:27;;;;;;;9.30;4.27;;;;;;;22.98;81.67;98063.25;4999617;28;20229;-69
2021/08/24 06:53:54;;;;;;;5.50;4.20;;;;;;;23.07;81.84;98087.47;4980420;28;20293;-68
2021/08/24 06:56:20;;;;;;;13.57;5.00;;;;;;;23.06;81.15;98083.16;4997027;28;20292;-69
2021/08/24 06:58:47;;;;;;;9.60;5.20;;;;;;;23.06;79.54;98087.41;4996063;28;20222;-66
2021/08/24 07:01:18;;;;;;;9.47;5.70;;;;;;;22.97;78.96;98077.75;5002064;28;20306;-68
2021/08/24 07:03:45;;;;;;;9.50;6.27;;;;;;;22.97;77.96;98075.19;4991312;28;20206;-67
2021/08/24 07:06:12;;;;;;;12.67;6.20;;;;;;;23.05;76.75;98090.81;4999647;28;20252;-69
2021/08/24 07:08:38;;;;;;;10.17;5.50;;;;;;;22.97;76.36;98066.63;4985732;28;20311;-69
2021/08/24 07:11:05;;;;;;;7.63;5.17;;;;;;;23.03;76.42;98088.19;4977920;28;20298;-67
2021/08/24 07:13:33;;;;;;;11.33;5.27;;;;;;;23.03;76.90;98087.31;4979215;28;20692;-66
2021/08/24 07:16:00;;;;;;;8.07;5.00;;;;;;;22.95;77.44;98071.69;4978552;28;20210;-68
2021/08/24 07:18:27;;;;;;;6.90;5.30;;;;;;;22.93;78.07;98078.47;4978735;28;20230;-68
2021/08/24 07:20:54;;;;;;;8.57;5.70;;;;;;;22.72;78.82;98036.78;4979106;28;20967;-68
2021/08/24 07:23:22;;;;;;;7.67;4.80;;;;;;;22.93;79.13;98075.03;4977011;28;20249;-67
2021/08/24 07:25:48;;;;;;;7.43;4.97;;;;;;;22.96;79.59;98085.38;4960562;28;20207;-68
2021/08/24 07:28:15;;;;;;;8.30;4.77;;;;;;;22.93;80.13;98077.59;4977292;28;20230;-66
2021/08/24 07:30:43;;;;;;;8.93;4.87;;;;;;;22.95;80.26;98081.09;4977205;28;20202;-67
2021/08/24 07:33:10;;;;;;;9.80;5.20;;;;;;;23.03;80.62;98100.13;4977855;28;20422;-68
2021/08/24 07:35:37;;;;;;;7.17;4.27;;;;;;;22.88;81.04;98079.13;4978386;28;20214;-67
2021/08/24 07:38:03;;;;;;;5.47;4.50;;;;;;;23.01;81.20;98099.22;4976142;28;20721;-68
2021/08/24 07:40:30;;;;;;;8.80;4.57;;;;;;;23.00;81.33;98098.34;4979342;28;20345;-68
2021/08/24 07:42:56;;;;;;;5.57;4.50;;;;;;;22.99;81.60;98093.19;4978405;28;20215;-67
2021/08/24 07:45:23;;;;;;;6.27;4.50;;;;;;;22.98;81.79;98104.25;4978030;28;21169;-67
2021/08/24 07:47:50;;;;;;;8.23;4.20;;;;;;;22.97;81.91;98093.13;4976726;28;21101;-67
2021/08/24 07:50:17;;;;;;;6.10;4.43;;;;;;;22.97;82.00;98102.50;4978012;28;20210;-68
2021/08/24 07:52:44;;;;;;;7.60;4.73;;;;;;;22.86;82.15;98091.91;4977430;28;20467;-68
2021/08/24 07:55:12;;;;;;;6.63;4.77;;;;;;;22.93;82.42;98092.97;4962439;28;20631;-67
2021/08/24 07:57:38;;;;;;;6.17;4.80;;;;;;;22.96;82.61;98099.09;4976939;28;20241;-68
2021/08/24 08:00:05;;;;;;;5.07;4.10;;;;;;;22.97;82.81;98105.06;4978856;28;20319;-67
2021/08/24 08:02:32;;;;;;;5.80;4.60;;;;;;;22.98;82.82;98119.66;4981355;28;20234;-68
2021/08/24 08:04:59;;;;;;;4.53;4.13;;;;;;;22.98;83.07;98106.81;4979820;28;20206;-68
2021/08/24 08:07:26;;;;;;;8.20;4.43;;;;;;;22.98;82.96;98109.38;4977826;28;20710;-68
2021/08/24 08:09:53;;;;;;;6.67;4.70;;;;;;;22.97;83.32;98098.25;4980274;28;20207;-70
2021/08/24 08:12:19;;;;;;;6.47;4.30;;;;;;;22.94;83.45;98104.97;4982219;28;20329;-69
2021/08/24 08:14:47;;;;;;;7.67;4.47;;;;;;;22.87;81.90;98093.66;4979656;28;20870;-67
2021/08/24 08:17:13;;;;;;;8.00;4.00;;;;;;;22.77;80.74;98078.78;4961248;28;20269;-68
2021/08/24 08:19:40;;;;;;;6.20;4.10;;;;;;;22.98;80.83;98112.81;4981221;28;20313;-68
2021/08/24 08:22:06;;;;;;;5.90;4.70;;;;;;;22.90;81.26;98100.56;4963900;28;21275;-68
2021/08/24 08:24:33;;;;;;;6.83;4.27;;;;;;;22.98;81.57;98114.53;4959442;28;20215;-70
2021/08/24 08:27:00;;;;;;;4.40;3.97;;;;;;;22.90;82.00;98106.56;4957992;28;21254;-68
2021/08/24 08:29:27;;;;;;;5.70;4.17;;;;;;;22.67;82.06;98066.50;4960249;28;20650;-69
2021/08/24 08:31:53;;;;;;;4.30;3.80;;;;;;;22.81;82.56;98088.34;4959122;28;20210;-68
2021/08/24 08:34:20;;;;;;;5.33;4.30;;;;;;;22.98;82.68;98123.06;4944160;28;21182;-68
2021/08/24 08:36:48;;;;;;;4.87;4.23;;;;;;;22.99;83.04;98119.69;4960085;28;20345;-68
2021/08/24 08:39:15;;;;;;;5.20;4.07;;;;;;;22.99;83.11;98117.13;4963705;28;20336;-68
2021/08/24 08:42:33;;;;;;;4.93;4.10;;;;;;;23.00;83.23;98102.59;4962479;28;20305;-67
2021/08/24 08:45:17;;;;;;;4.67;3.90;;;;;;;23.00;83.35;98102.59;4939107;28;20634;-69
2021/08/24 08:47:53;;;;;;;4.70;4.07;;;;;;;23.00;83.40;98102.59;4942437;28;21088;-67
2021/08/24 08:50:32;;;;;;;6.27;3.90;;;;;;;22.99;83.51;98101.75;4961538;28;20210;-66
2021/08/24 08:53:14;;;;;;;5.53;4.13;;;;;;;23.00;83.66;98108.59;4959912;28;20233;-69
2021/08/24 08:55:49;;;;;;;4.73;4.20;;;;;;;23.00;83.69;98115.41;4944749;28;20216;-68
2021/08/24 08:58:32;;;;;;;5.80;4.07;;;;;;;22.99;83.92;98103.44;4962126;28;20311;-70
2021/08/24 09:01:23;;;;;;;10.30;4.43;;;;;;;22.99;83.94;98109.44;4961992;28;20214;-70
2021/08/24 09:04:11;;;;;;;6.00;3.90;;;;;;;22.99;82.72;98113.69;4941857;28;20211;-69
2021/08/24 09:06:38;;;;;;;9.07;3.83;;;;;;;22.96;82.36;98103.34;4958886;28;21207;-68
2021/08/24 09:09:08;;;;;;;8.20;4.30;;;;;;;22.95;82.68;98110.13;4959277;28;20583;-68
2021/08/24 09:11:37;;;;;;;7.27;4.33;;;;;;;22.71;83.09;98067.47;4961697;28;20210;-69
2021/08/24 09:14:16;;;;;;;11.70;4.53;;;;;;;22.86;83.06;98091.91;4940478;28;20207;-69
2021/08/24 09:17:03;;;;;;;10.13;4.50;;;;;;;22.95;83.17;98110.13;4950590;28;20268;-69
2021/08/24 09:19:39;;;;;;;9.37;3.83;;;;;;;22.95;83.52;98114.41;4963938;28;20230;-67
2021/08/24 09:22:06;;;;;;;11.47;4.70;;;;;;;22.94;83.80;98110.09;4944269;28;20751;-68
2021/08/24 09:24:33;;;;;;;8.93;4.40;;;;;;;22.88;83.96;98104.75;4963363;28;20401;-69
2021/08/24 09:27:15;;;;;;;10.60;4.33;;;;;;;22.85;84.30;98096.97;4952427;28;20336;-71
2021/08/24 09:29:46;;;;;;;11.33;3.80;;;;;;;22.98;84.14;98122.22;4962654;28;20206;-69
2021/08/24 09:32:19;;;;;;;9.57;4.60;;;;;;;22.99;84.43;98119.69;4945414;28;20785;-70
2021/08/24 09:34:47;;;;;;;5.80;4.30;;;;;;;22.99;84.70;98116.25;4962460;28;20214;-69
2021/08/24 09:37:23;;;;;;;7.63;4.17;;;;;;;22.99;84.70;98117.13;4962864;28;20230;-69
2021/08/24 09:40:00;;;;;;;14.43;4.33;;;;;;;21.99;84.61;97950.59;4963589;28;20232;-74
2021/08/24 09:42:37;;;;;;;6.63;3.77;;;;;;;22.99;84.87;98126.50;4961525;28;20764;-70
2021/08/24 09:45:27;;;;;;;7.07;4.30;;;;;;;22.99;84.90;98121.38;4961913;28;20226;-70
2021/08/24 09:48:00;;;;;;;7.90;3.47;;;;;;;22.98;85.03;98120.50;4959143;28;20959;-66
2021/08/24 09:50:44;;;;;;;9.43;4.03;;;;;;;22.98;85.17;98129.91;4978160;28;20543;-68
2021/08/24 09:53:31;;;;;;;9.13;3.90;;;;;;;22.99;85.33;98127.38;4978520;28;20203;-68
2021/08/24 09:55:58;;;;;;;5.63;4.00;;;;;;;22.99;85.68;98123.94;4943909;28;20244;-71
2021/08/24 09:58:48;;;;;;;6.47;3.93;;;;;;;23.00;85.41;98131.69;4980022;28;20336;-70
2021/08/24 10:01:15;;;;;;;6.20;3.40;;;;;;;23.00;85.45;98129.13;4976672;28;20217;-68
2021/08/24 10:04:03;;;;;;;8.53;4.33;;;;;;;22.83;85.53;98099.47;4967462;28;20306;-68
2021/08/24 10:06:34;;;;;;;7.47;4.00;;;;;;;23.00;85.60;98131.69;4978548;28;21029;-69
2021/08/24 10:09:30;;;;;;;6.77;4.23;;;;;;;23.01;85.88;98130.84;4981069;28;20195;-69
2021/08/24 10:12:20;;;;;;;8.73;4.33;;;;;;;23.00;85.94;98144.50;4976508;28;20310;-69
2021/08/24 10:14:50;;;;;;;9.80;4.10;;;;;;;23.00;85.98;98116.31;4980010;28;20241;-69
2021/08/24 10:17:36;;;;;;;4.77;3.60;;;;;;;22.85;85.80;98092.72;4979149;28;20226;-68
2021/08/24 10:20:18;;;;;;;6.17;3.80;;;;;;;22.98;85.74;98111.97;4960460;28;21152;-70
2021/08/24 10:22:47;;;;;;;7.87;4.17;;;;;;;22.94;85.95;98113.53;4975757;28;21496;-69
2021/08/24 10:25:22;;;;;;;7.30;3.83;;;;;;;22.97;86.03;98117.88;4957628;28;20209;-69
2021/08/24 10:28:12;;;;;;;4.83;3.60;;;;;;;22.97;86.32;98121.31;4964217;28;20329;-71
2021/08/24 10:30:47;;;;;;;6.43;3.73;;;;;;;22.96;86.23;98122.16;4979068;28;20288;-69
2021/08/24 10:33:18;;;;;;;6.90;3.50;;;;;;;22.89;86.39;98107.38;4974335;28;20211;-71
2021/08/24 10:35:50;;;;;;;6.27;3.73;;;;;;;22.89;86.44;98107.38;4977380;28;20217;-71
2021/08/24 10:38:17;;;;;;;7.83;3.70;;;;;;;22.89;86.40;98107.38;4957473;28;20254;-70
2021/08/24 10:40:45;;;;;;;6.33;3.70;;;;;;;22.94;86.42;98115.22;4969164;28;20294;-70
2021/08/24 10:43:15;;;;;;;5.87;3.43;;;;;;;22.97;86.43;98123.00;4958382;28;20322;-68
2021/08/24 10:46:00;;;;;;;6.77;3.73;;;;;;;22.97;86.60;98118.75;4977496;28;20896;-70
2021/08/24 10:48:26;;;;;;;5.87;3.27;;;;;;;22.97;86.38;98118.75;4980738;28;20222;-70
2021/08/24 10:50:57;;;;;;;5.73;3.43;;;;;;;22.84;86.40;98085.88;4957348;28;20580;-70
2021/08/24 10:53:49;;;;;;;7.63;3.23;;;;;;;22.95;86.59;98112.72;4974766;28;20236;-71
2021/08/24 10:57:13;;;;;;;4.73;3.40;;;;;;;22.96;86.70;98114.47;4978981;28;20226;-71
2021/08/24 10:59:49;;;;;;;5.57;3.57;;;;;;;22.77;86.54;98075.38;4960887;28;20233;-69
2021/08/24 11:02:37;;;;;;;4.57;3.63;;;;;;;22.88;86.48;98099.63;4943850;28;20211;-69
2021/08/24 11:05:06;;;;;;;6.30;4.00;;;;;;;22.94;86.66;98110.97;4958828;28;20214;-71
2021/08/24 11:07:42;;;;;;;5.07;3.80;;;;;;;22.94;86.90;98107.53;4978765;28;20362;-74
2021/08/24 11:10:46;;;;;;;8.47;3.40;;;;;;;22.94;87.08;98097.28;4980251;28;20207;-70
2021/08/24 11:13:58;;;;;;;7.83;3.90;;;;;;;22.93;87.21;98104.13;4976234;28;20210;-71
2021/08/24 11:16:33;;;;;;;5.23;4.00;;;;;;;22.95;87.22;98099.03;4957169;28;20321;-71
2021/08/24 11:19:10;;;;;;;6.20;3.73;;;;;;;22.93;87.33;98096.44;4978209;28;20234;-70
2021/08/24 11:21:48;;;;;;;4.43;3.40;;;;;;;22.95;87.29;98109.28;4978938;28;20301;-67
2021/08/24 11:24:42;;;;;;;5.73;3.40;;;;;;;22.95;87.31;98105.00;4976502;28;20981;-68
2021/08/24 11:27:52;;;;;;;5.23;3.97;;;;;;;22.83;87.32;98084.09;4978091;28;20384;-68
2021/08/24 11:30:30;;;;;;;4.23;3.50;;;;;;;22.96;87.33;98111.03;4965171;28;20213;-69
2021/08/24 11:33:11;;;;;;;4.63;3.77;;;;;;;22.95;87.42;98114.41;4975911;28;20210;-71
2021/08/24 11:35:43;;;;;;;4.40;3.17;;;;;;;22.63;87.53;98053.53;4978008;28;21121;-69
2021/08/24 11:38:14;;;;;;;4.17;3.77;;;;;;;22.83;87.53;98099.47;4978752;28;20318;-68
2021/08/24 11:40:47;;;;;;;7.83;3.73;;;;;;;22.95;87.77;98111.84;4967725;28;20317;-70
2021/08/24 11:43:17;;;;;;;4.03;3.53;;;;;;;22.84;88.05;98098.69;4976600;28;21486;-69
2021/08/24 11:45:49;;;;;;;6.63;3.73;;;;;;;22.94;88.61;98112.66;4957044;28;20206;-67
2021/08/24 11:48:24;;;;;;;7.03;4.43;;;;;;;22.95;88.72;98119.53;4979802;28;20751;-68
2021/08/24 11:51:06;;;;;;;7.20;4.53;;;;;;;22.13;89.07;97984.31;4979358;28;20745;-68
2021/08/24 11:53:48;;;;;;;10.80;4.17;;;;;;;22.95;89.14;98115.28;4973890;28;20210;-68
2021/08/24 11:57:05;;;;;;;9.10;4.20;;;;;;;22.90;89.24;98103.13;4979863;28;20207;-68
2021/08/24 11:59:35;;;;;;;7.00;4.13;;;;;;;22.94;89.33;98105.84;4894876;29;20237;-68